Time;durP1;ratioP1;P1;durP2;ratioP2;P2;SDS_P1;SDS_P2;PMS_P1;PMS_P2;Temp;Humidity;BMP_temperature;BMP_pressure;BME280_temperature;BME280_humidity;BME280_pressure;Samples;Min_cycle;Max_cycle;Signal;HPM_P1;HPM_P2
2021/12/29 00:00:28;;;;;;;5.63;3.23;;;4.40;99.90;4.20;98753.00;;;;5015359;27;107300;-73
2021/12/29 00:02:58;;;;;;;4.33;3.40;;;4.40;99.90;4.20;98755.00;;;;5026658;27;89005;-73
2021/12/29 00:05:24;;;;;;;4.47;3.43;;;4.40;99.90;4.20;98756.00;;;;5035410;27;88264;-74
2021/12/29 00:07:50;;;;;;;7.47;3.37;;;4.40;99.90;4.20;98757.00;;;;5034745;27;98345;-74
2021/12/29 00:10:18;;;;;;;6.50;4.00;;;4.40;99.90;4.30;98763.00;;;;5036321;27;87060;-75
2021/12/29 00:12:48;;;;;;;4.53;3.17;;;4.50;99.90;4.30;98754.00;;;;5025888;27;88822;-76
2021/12/29 00:15:16;;;;;;;7.00;4.07;;;4.50;99.90;4.30;98763.00;;;;5034796;27;87807;-77
2021/12/29 00:17:45;;;;;;;8.40;4.53;;;4.50;99.90;4.30;98763.00;;;;5015237;27;88631;-80
2021/12/29 00:20:14;;;;;;;4.93;3.40;;;4.50;99.90;4.30;98755.00;;;;5016501;27;88079;-78
2021/12/29 00:22:41;;;;;;;5.67;3.63;;;4.50;99.90;4.30;98762.00;;;;5004088;27;90055;-77
2021/12/29 00:25:08;;;;;;;6.03;4.23;;;4.50;99.90;4.30;98774.00;;;;5014719;27;87994;-75
2021/12/29 00:27:34;;;;;;;4.23;3.77;;;4.50;99.90;4.30;98762.00;;;;5035274;27;89431;-81
2021/12/29 00:30:00;;;;;;;9.13;4.27;;;4.50;99.90;4.30;98773.00;;;;5011737;27;111415;-77
2021/12/29 00:32:27;;;;;;;7.30;4.00;;;4.50;99.90;4.30;98779.00;;;;5005933;27;102876;-75
2021/12/29 00:34:53;;;;;;;5.90;3.60;;;4.60;99.90;4.30;98778.00;;;;5022928;27;88814;-77
2021/12/29 00:37:19;;;;;;;5.97;3.77;;;4.50;99.90;4.30;98793.00;;;;5034173;27;88155;-78
2021/12/29 00:39:45;;;;;;;6.13;4.10;;;4.50;99.90;4.30;98788.00;;;;5034026;27;108603;-77
2021/12/29 00:42:11;;;;;;;8.43;3.87;;;4.50;99.90;4.30;98806.00;;;;5006549;27;89181;-78
2021/12/29 00:44:36;;;;;;;6.07;3.20;;;4.60;99.90;4.30;98797.00;;;;5014115;27;118292;-80
2021/12/29 00:47:03;;;;;;;6.93;3.87;;;4.50;99.90;4.30;98802.00;;;;5015654;27;88339;-78
2021/12/29 00:49:33;;;;;;;5.83;3.37;;;4.50;99.90;4.30;98799.00;;;;5035628;27;87935;-78
2021/12/29 00:52:01;;;;;;;6.70;3.70;;;4.60;99.90;4.30;98797.00;;;;5021250;27;88609;-78
2021/12/29 00:54:28;;;;;;;11.37;4.23;;;4.50;99.90;4.30;98812.00;;;;5002337;27;90766;-77
2021/12/29 00:56:54;;;;;;;10.17;4.20;;;4.50;99.90;4.20;98813.00;;;;5018187;27;110008;-74
2021/12/29 00:59:20;;;;;;;7.50;4.40;;;4.50;99.90;4.20;98811.00;;;;5037620;27;104342;-74
2021/12/29 01:01:48;;;;;;;5.87;4.47;;;4.40;99.90;4.20;98804.00;;;;5007217;27;118090;-76
2021/12/29 01:04:14;;;;;;;10.80;4.57;;;4.30;99.90;4.20;98815.00;;;;5036797;27;117545;-74
2021/12/29 01:06:40;;;;;;;5.70;4.27;;;4.30;99.90;4.10;98823.00;;;;5036206;27;110512;-73
2021/12/29 01:09:05;;;;;;;7.37;4.30;;;4.30;99.90;4.10;98818.00;;;;5037911;27;87806;-78
2021/12/29 01:11:31;;;;;;;6.57;4.53;;;4.30;99.90;4.10;98815.00;;;;5031875;27;104130;-75
2021/12/29 01:13:57;;;;;;;9.20;4.70;;;4.20;99.90;4.00;98824.00;;;;5034998;27;88375;-77
2021/12/29 01:16:36;;;;;;;8.10;4.77;;;4.20;99.90;4.00;98827.00;;;;5018640;27;88130;-78
2021/12/29 01:19:19;;;;;;;8.30;5.07;;;4.20;99.90;4.00;98827.00;;;;5020805;27;87978;-78
2021/12/29 01:21:49;;;;;;;8.43;4.73;;;4.20;99.90;4.00;98836.00;;;;5008047;27;90025;-75
2021/12/29 01:24:17;;;;;;;6.00;4.70;;;4.20;99.90;4.00;98834.00;;;;5037422;27;99506;-75
2021/12/29 01:26:43;;;;;;;9.00;5.00;;;4.10;99.90;4.00;98837.00;;;;5038070;27;87864;-77
2021/12/29 01:29:13;;;;;;;9.57;4.90;;;4.20;99.90;4.00;98844.00;;;;5019253;27;88264;-77
2021/12/29 01:31:40;;;;;;;6.60;4.53;;;4.20;99.90;4.00;98832.00;;;;5008191;27;89367;-78
2021/12/29 01:34:07;;;;;;;10.77;5.50;;;4.10;99.90;4.00;98851.00;;;;5034131;27;89748;-77
2021/12/29 01:36:36;;;;;;;7.73;5.23;;;4.20;99.90;4.00;98845.00;;;;5037769;27;87697;-73
2021/12/29 01:39:07;;;;;;;12.07;6.10;;;4.20;99.90;4.00;98851.00;;;;5019063;27;88029;-77
2021/12/29 01:41:34;;;;;;;7.43;5.63;;;4.10;99.90;4.00;98859.00;;;;5008491;27;104322;-77
2021/12/29 01:44:01;;;;;;;7.23;4.70;;;4.20;99.90;4.00;98862.00;;;;4996034;27;106307;-77
2021/12/29 01:46:27;;;;;;;7.67;4.73;;;4.10;99.90;3.90;98862.00;;;;5017357;27;91485;-77
2021/12/29 01:48:53;;;;;;;8.23;5.47;;;4.20;99.90;3.90;98862.00;;;;5017273;27;108664;-75
2021/12/29 01:51:20;;;;;;;7.27;5.40;;;4.10;99.90;3.90;98859.00;;;;5032167;27;118376;-75
2021/12/29 01:54:02;;;;;;;7.17;5.30;;;4.10;99.90;3.90;98854.00;;;;4997778;27;89124;-75
2021/12/29 01:56:30;;;;;;;8.23;4.60;;;4.00;99.90;3.90;98864.00;;;;4999930;27;89025;-75
2021/12/29 01:58:56;;;;;;;8.07;5.90;;;4.20;99.90;4.00;98870.00;;;;5017210;27;95390;-75
2021/12/29 02:01:22;;;;;;;9.20;5.43;;;4.30;99.90;4.00;98868.00;;;;5024204;27;118084;-75
2021/12/29 02:03:50;;;;;;;7.33;5.57;;;4.20;99.90;4.00;98865.00;;;;5032029;27;100763;-75
2021/12/29 02:06:16;;;;;;;12.03;5.77;;;4.20;99.90;4.00;98869.00;;;;5018212;27;87828;-75
2021/12/29 02:08:42;;;;;;;9.87;5.17;;;4.50;99.90;4.00;98880.00;;;;5037182;27;88051;-75
2021/12/29 02:11:08;;;;;;;7.83;5.23;;;4.20;99.90;4.00;98881.00;;;;5034905;27;88262;-75
2021/12/29 02:13:33;;;;;;;10.23;5.77;;;4.20;99.90;4.00;98875.00;;;;5030617;27;88804;-74
2021/12/29 02:16:00;;;;;;;8.20;5.67;;;4.20;99.90;4.00;98882.00;;;;5002928;27;110373;-75
2021/12/29 02:18:26;;;;;;;12.23;6.20;;;4.20;99.90;3.90;98881.00;;;;5037475;27;87620;-74
2021/12/29 02:20:54;;;;;;;10.17;6.27;;;4.10;99.90;3.90;98883.00;;;;5035948;27;89194;-73
2021/12/29 02:23:34;;;;;;;8.33;4.93;;;4.10;99.90;3.90;98882.00;;;;5028915;27;89099;-74
2021/12/29 02:26:00;;;;;;;10.53;5.97;;;4.10;99.90;3.80;98888.00;;;;5019901;27;88122;-74
2021/12/29 02:28:32;;;;;;;6.93;5.13;;;4.60;99.90;3.80;98885.00;;;;5037364;27;87663;-75
2021/12/29 02:30:59;;;;;;;8.37;5.63;;;4.10;99.90;3.80;98892.00;;;;5035780;27;88421;-74
2021/12/29 02:33:26;;;;;;;10.70;5.87;;;4.00;99.90;3.70;98891.00;;;;5029369;27;87956;-74
2021/12/29 02:35:53;;;;;;;6.73;4.73;;;3.90;99.90;3.70;98894.00;;;;5017780;27;87786;-74
2021/12/29 02:38:33;;;;;;;8.20;5.37;;;4.00;99.90;3.70;98893.00;;;;5036866;27;86779;-74
2021/12/29 02:41:03;;;;;;;8.33;5.00;;;3.90;99.90;3.60;98896.00;;;;5034814;27;88247;-75
2021/12/29 02:43:32;;;;;;;9.37;5.60;;;3.80;99.90;3.60;98896.00;;;;5008179;27;87934;-74
2021/12/29 02:45:58;;;;;;;8.73;5.30;;;3.80;99.90;3.50;98891.00;;;;5032539;27;88679;-74
2021/12/29 02:48:30;;;;;;;6.70;5.43;;;3.70;99.90;3.50;98896.00;;;;5017881;27;87839;-74
2021/12/29 02:50:56;;;;;;;10.73;5.87;;;3.70;99.90;3.40;98892.00;;;;4999493;27;87854;-74
2021/12/29 02:53:27;;;;;;;8.40;5.90;;;3.70;99.90;3.40;98902.00;;;;5030547;27;90138;-75
2021/12/29 02:55:54;;;;;;;11.20;5.60;;;3.60;99.90;3.30;98904.00;;;;5032910;27;87825;-75
2021/12/29 02:58:22;;;;;;;8.53;5.10;;;3.60;99.90;3.30;98900.00;;;;5036503;27;88019;-74
2021/12/29 03:00:50;;;;;;;11.80;5.70;;;3.90;99.90;3.30;98909.00;;;;5036042;27;88758;-75
2021/12/29 03:03:18;;;;;;;8.63;5.50;;;3.50;99.90;3.30;98911.00;;;;5008851;27;87234;-74
2021/12/29 03:05:45;;;;;;;10.13;5.50;;;3.60;99.90;3.30;98913.00;;;;5035896;27;93581;-75
2021/12/29 03:08:14;;;;;;;7.20;5.23;;;3.50;99.90;3.30;98914.00;;;;5036006;27;87746;-74
2021/12/29 03:10:41;;;;;;;5.83;4.43;;;3.60;99.90;3.30;98923.00;;;;5035743;27;89034;-75
2021/12/29 03:13:07;;;;;;;6.73;4.70;;;3.50;99.90;3.40;98924.00;;;;5006954;27;106271;-75
2021/12/29 03:15:35;;;;;;;11.13;5.70;;;3.50;99.90;3.40;98912.00;;;;5017325;27;87916;-74
2021/12/29 03:18:00;;;;;;;8.27;5.73;;;3.70;99.90;3.40;98919.00;;;;5016936;27;87707;-75
2021/12/29 03:20:26;;;;;;;6.43;5.03;;;5.30;99.90;3.50;98919.00;;;;5016605;27;100939;-74
2021/12/29 03:22:54;;;;;;;7.57;5.83;;;3.70;99.90;3.50;98917.00;;;;5008447;27;87906;-74
2021/12/29 03:25:21;;;;;;;10.77;5.67;;;3.70;99.90;3.50;98925.00;;;;5036035;27;87548;-74
2021/12/29 03:27:47;;;;;;;7.50;5.00;;;3.70;99.90;3.50;98930.00;;;;5035413;27;87190;-74
2021/12/29 03:30:13;;;;;;;11.10;5.57;;;3.60;99.90;3.50;98923.00;;;;5016196;27;96136;-73
2021/12/29 03:32:49;;;;;;;7.33;5.20;;;3.60;99.90;3.50;98935.00;;;;5026729;27;87861;-74
2021/12/29 03:35:16;;;;;;;7.80;5.13;;;3.70;99.90;3.60;98931.00;;;;5035173;27;88607;-73
2021/12/29 03:37:41;;;;;;;6.00;5.00;;;3.70;99.90;3.60;98924.00;;;;5035790;27;92872;-74
2021/12/29 03:40:09;;;;;;;7.50;4.87;;;3.80;99.90;3.60;98947.00;;;;5035148;27;106653;-74
2021/12/29 03:42:35;;;;;;;8.93;5.30;;;3.90;99.90;3.70;98954.00;;;;5018587;27;88230;-73
2021/12/29 03:45:02;;;;;;;7.00;5.10;;;3.90;99.90;3.70;98951.00;;;;5035385;27;91816;-73
2021/12/29 03:47:27;;;;;;;8.63;4.57;;;3.90;99.90;3.80;98964.00;;;;5035247;27;93916;-73
2021/12/29 03:49:53;;;;;;;7.73;4.77;;;4.00;99.90;3.80;98959.00;;;;5016482;27;87909;-73
2021/12/29 03:52:19;;;;;;;7.40;5.17;;;4.10;99.90;3.80;98964.00;;;;5026469;27;117768;-74
2021/12/29 03:54:44;;;;;;;7.87;5.07;;;4.00;99.90;3.90;98958.00;;;;5034553;27;111467;-73
2021/12/29 03:57:10;;;;;;;10.03;5.33;;;4.10;99.90;3.90;98960.00;;;;5034015;27;110165;-73
2021/12/29 03:59:36;;;;;;;10.30;4.20;;;4.10;99.90;3.90;98960.00;;;;5034384;27;118973;-73
2021/12/29 04:02:02;;;;;;;9.57;5.73;;;4.00;99.90;3.90;98970.00;;;;5017101;27;117792;-73
2021/12/29 04:04:28;;;;;;;8.07;4.20;;;4.10;99.90;4.00;98978.00;;;;5035380;27;88082;-72
2021/12/29 04:06:54;;;;;;;11.07;5.30;;;4.20;99.90;4.00;98998.00;;;;5034619;27;108870;-72
2021/12/29 04:09:20;;;;;;;7.17;4.97;;;4.20;99.90;4.00;98992.00;;;;5016637;27;88345;-73
2021/12/29 04:11:50;;;;;;;8.47;4.90;;;4.20;99.90;4.00;99009.00;;;;5027651;27;87943;-73
2021/12/29 04:14:20;;;;;;;7.40;5.03;;;4.20;99.90;4.00;99001.00;;;;5034888;27;87950;-73
2021/12/29 04:16:47;;;;;;;8.57;4.17;;;4.20;99.90;4.00;99003.00;;;;5017545;27;87111;-73
2021/12/29 04:19:17;;;;;;;7.20;4.80;;;4.20;99.90;4.00;99011.00;;;;4998761;27;89318;-74
2021/12/29 04:21:46;;;;;;;6.73;4.33;;;4.20;99.90;4.00;99021.00;;;;5006062;27;88343;-73
2021/12/29 04:24:13;;;;;;;8.20;4.10;;;4.20;99.90;4.00;99013.00;;;;5034057;27;88605;-73
2021/12/29 04:26:39;;;;;;;6.53;4.23;;;4.30;99.90;4.10;99025.00;;;;5020169;27;87656;-73
2021/12/29 04:29:07;;;;;;;8.87;5.20;;;4.30;99.90;4.10;99016.00;;;;5038406;27;98468;-73
2021/12/29 04:31:33;;;;;;;5.67;4.37;;;4.30;99.90;4.10;99022.00;;;;5033022;27;88849;-73
2021/12/29 04:33:59;;;;;;;7.63;4.33;;;4.30;99.90;4.20;99020.00;;;;5035957;27;87804;-74
2021/12/29 04:36:25;;;;;;;7.67;4.63;;;4.40;99.90;4.20;99032.00;;;;5037924;27;108805;-73
2021/12/29 04:38:57;;;;;;;9.77;5.33;;;4.30;99.90;4.20;99033.00;;;;5002467;27;89852;-73
2021/12/29 04:41:23;;;;;;;7.87;4.10;;;4.30;99.90;4.20;99030.00;;;;5030574;27;88562;-73
2021/12/29 04:43:49;;;;;;;5.40;4.33;;;4.40;99.90;4.20;99052.00;;;;5029766;27;109559;-73
2021/12/29 04:46:17;;;;;;;6.73;3.50;;;4.40;99.90;4.30;99042.00;;;;5037979;27;92945;-73
2021/12/29 04:48:50;;;;;;;7.00;3.93;;;4.40;99.90;4.30;99042.00;;;;5037797;27;89870;-73
2021/12/29 04:51:24;;;;;;;5.53;3.37;;;4.50;99.90;4.30;99043.00;;;;5031773;27;89338;-74
2021/12/29 04:53:50;;;;;;;7.33;4.03;;;4.50;99.90;4.30;99041.00;;;;5031691;27;87764;-73
2021/12/29 04:56:16;;;;;;;6.57;4.33;;;4.50;99.90;4.30;99052.00;;;;5038585;27;96673;-73
2021/12/29 04:58:43;;;;;;;10.40;5.70;;;4.50;99.90;4.30;99056.00;;;;5037305;27;112732;-74
2021/12/29 05:01:09;;;;;;;8.60;4.77;;;4.50;99.90;4.30;99057.00;;;;5032506;27;89289;-74
2021/12/29 05:03:37;;;;;;;9.07;5.03;;;4.50;99.90;4.30;99062.00;;;;5026161;27;106352;-72
2021/12/29 05:08:32;;;;;;;10.57;4.93;;;4.50;99.90;4.40;99071.00;;;;5037239;27;88084;-72
2021/12/29 05:11:02;;;;;;;8.37;5.07;;;4.60;99.90;4.40;99082.00;;;;5036178;27;117684;-72
2021/12/29 05:13:31;;;;;;;6.50;4.17;;;4.60;99.90;4.40;99075.00;;;;5031522;27;89040;-72
2021/12/29 05:15:58;;;;;;;4.13;3.73;;;4.60;99.90;4.40;99090.00;;;;5019852;27;87870;-73
2021/12/29 05:18:30;;;;;;;5.77;3.80;;;4.60;99.90;4.40;99087.00;;;;5018139;27;88350;-72
2021/12/29 05:20:57;;;;;;;8.43;4.23;;;4.60;99.90;4.40;99090.00;;;;5017216;27;104313;-73
2021/12/29 05:23:24;;;;;;;10.07;4.67;;;4.60;99.90;4.40;99098.00;;;;5023356;27;95988;-73
2021/12/29 05:25:50;;;;;;;10.53;4.37;;;4.50;99.90;4.40;99102.00;;;;5019548;27;89840;-73
2021/12/29 05:28:20;;;;;;;4.53;3.10;;;4.60;99.90;4.40;99114.00;;;;5037641;27;88166;-72
2021/12/29 05:30:47;;;;;;;5.70;3.30;;;4.60;99.90;4.40;99107.00;;;;5039314;27;88506;-73
2021/12/29 05:33:14;;;;;;;4.37;3.00;;;4.60;99.90;4.40;99113.00;;;;5009807;27;87771;-71
2021/12/29 05:35:40;;;;;;;6.77;4.13;;;4.60;99.90;4.40;99116.00;;;;5037537;27;87766;-72
2021/12/29 05:38:06;;;;;;;11.27;5.03;;;4.60;99.90;4.40;99117.00;;;;5037545;27;89370;-71
2021/12/29 05:40:32;;;;;;;6.97;3.77;;;4.70;99.90;4.40;99117.00;;;;5036776;27;118671;-71
2021/12/29 05:42:59;;;;;;;6.57;3.83;;;4.70;99.90;4.50;99121.00;;;;5028863;27;95999;-73
2021/12/29 05:45:28;;;;;;;7.77;4.40;;;4.70;99.90;4.40;99126.00;;;;5038322;27;88131;-72
2021/12/29 05:47:55;;;;;;;6.73;3.77;;;4.70;99.90;4.40;99117.00;;;;5037020;27;88052;-73
2021/12/29 05:50:26;;;;;;;6.20;3.90;;;4.60;99.90;4.40;99113.00;;;;5038099;27;88023;-72
2021/12/29 05:52:55;;;;;;;8.77;4.00;;;4.60;99.90;4.40;99124.00;;;;5007474;27;87830;-72
2021/12/29 05:55:21;;;;;;;7.47;4.07;;;4.60;99.90;4.40;99131.00;;;;5038401;27;87079;-72
2021/12/29 05:57:47;;;;;;;7.77;4.23;;;4.70;99.90;4.40;99128.00;;;;5031888;27;103940;-72
2021/12/29 06:00:16;;;;;;;6.27;3.83;;;4.70;99.90;4.50;99131.00;;;;5036360;27;119312;-72
2021/12/29 06:02:42;;;;;;;9.53;4.30;;;4.60;99.90;4.40;99143.00;;;;5009750;27;88953;-72
2021/12/29 06:05:09;;;;;;;7.97;4.13;;;4.70;99.90;4.40;99141.00;;;;5018493;27;87717;-72
2021/12/29 06:07:37;;;;;;;7.17;3.57;;;4.60;99.90;4.40;99147.00;;;;5018081;27;90651;-72
2021/12/29 06:10:04;;;;;;;8.50;4.17;;;4.60;99.90;4.40;99157.00;;;;5000518;27;99559;-72
2021/12/29 06:12:30;;;;;;;7.77;4.03;;;4.60;99.90;4.30;99159.00;;;;5027601;27;87713;-72
2021/12/29 06:14:56;;;;;;;6.07;3.73;;;4.60;99.90;4.30;99154.00;;;;5017797;27;108329;-72
2021/12/29 06:17:22;;;;;;;5.70;3.43;;;4.60;99.90;4.30;99161.00;;;;5017832;27;92350;-72
2021/12/29 06:19:48;;;;;;;6.30;3.60;;;4.50;99.90;4.30;99169.00;;;;5037889;27;94700;-72
2021/12/29 06:22:16;;;;;;;4.87;3.03;;;4.50;99.90;4.30;99171.00;;;;5028097;27;94433;-72
2021/12/29 06:24:43;;;;;;;4.27;3.27;;;4.60;99.90;4.40;99178.00;;;;5036983;27;87817;-71
2021/12/29 06:27:09;;;;;;;9.43;3.10;;;4.60;99.90;4.40;99178.00;;;;5036288;27;89961;-72
2021/12/29 06:29:36;;;;;;;6.87;3.43;;;4.60;99.90;4.40;99177.00;;;;5036782;27;115033;-71
2021/12/29 06:32:03;;;;;;;4.93;3.27;;;4.70;99.90;4.40;99183.00;;;;5027952;27;87851;-71
2021/12/29 06:34:29;;;;;;;5.57;2.93;;;4.60;99.90;4.50;99199.00;;;;5036152;27;88054;-72
2021/12/29 06:36:58;;;;;;;6.80;4.03;;;4.90;99.90;4.50;99193.00;;;;5036883;27;87769;-70
2021/12/29 06:39:24;;;;;;;5.17;3.40;;;4.70;99.90;4.50;99193.00;;;;5019177;27;89301;-71
2021/12/29 06:41:50;;;;;;;4.53;3.47;;;4.70;99.90;4.50;99204.00;;;;5005976;27;111381;-72
2021/12/29 06:44:15;;;;;;;11.40;4.03;;;4.70;99.90;4.50;99204.00;;;;5035886;27;108195;-72
2021/12/29 06:46:41;;;;;;;5.13;3.70;;;4.70;99.90;4.50;99213.00;;;;5034787;27;116881;-72
2021/12/29 06:49:07;;;;;;;7.40;4.10;;;5.40;99.90;4.60;99223.00;;;;5036205;27;88191;-72
2021/12/29 06:51:33;;;;;;;8.17;4.60;;;4.80;99.90;4.60;99230.00;;;;5029591;27;109482;-73
2021/12/29 06:53:58;;;;;;;6.67;4.20;;;4.80;99.90;4.60;99224.00;;;;5034144;27;87691;-72
2021/12/29 06:56:24;;;;;;;5.97;3.97;;;4.80;99.90;4.60;99234.00;;;;5015214;27;117581;-72
2021/12/29 06:58:50;;;;;;;5.50;3.90;;;4.80;99.90;4.70;99234.00;;;;5015715;27;88779;-72
2021/12/29 07:01:16;;;;;;;5.30;3.13;;;4.90;99.90;4.70;99231.00;;;;5022410;27;110840;-73
2021/12/29 07:03:42;;;;;;;4.30;2.83;;;4.90;99.90;4.70;99243.00;;;;5026532;27;87908;-72
2021/12/29 07:06:08;;;;;;;4.63;3.10;;;4.90;99.90;4.70;99247.00;;;;5023406;27;99870;-72
2021/12/29 07:08:33;;;;;;;4.03;2.90;;;4.90;99.90;4.70;99258.00;;;;4996007;27;117490;-72
2021/12/29 07:11:00;;;;;;;5.10;2.87;;;4.90;99.90;4.70;99269.00;;;;5029594;27;110405;-73
2021/12/29 07:13:25;;;;;;;5.93;3.07;;;4.90;99.90;4.70;99259.00;;;;5029588;27;87771;-72
2021/12/29 07:15:51;;;;;;;3.80;3.00;;;4.90;99.90;4.70;99265.00;;;;5034463;27;118731;-73
2021/12/29 07:18:17;;;;;;;5.20;3.13;;;4.90;99.90;4.70;99270.00;;;;5034960;27;117869;-72
2021/12/29 07:20:44;;;;;;;5.23;3.27;;;5.00;99.90;4.70;99267.00;;;;5016141;27;110740;-73
2021/12/29 07:23:11;;;;;;;4.60;3.17;;;4.90;99.90;4.70;99273.00;;;;5027409;27;87741;-72
2021/12/29 07:25:36;;;;;;;4.70;3.00;;;4.80;99.90;4.70;99279.00;;;;5035568;27;100896;-72
2021/12/29 07:28:02;;;;;;;7.00;4.20;;;4.90;99.90;4.70;99285.00;;;;5034501;27;117775;-72
2021/12/29 07:30:28;;;;;;;4.47;3.13;;;4.90;99.90;4.70;99272.00;;;;5035521;27;96555;-72
2021/12/29 07:32:54;;;;;;;4.80;3.13;;;4.90;99.90;4.70;99285.00;;;;5026333;27;105779;-73
2021/12/29 07:35:20;;;;;;;4.73;3.33;;;4.80;99.90;4.60;99273.00;;;;5035468;27;110172;-73
2021/12/29 07:37:45;;;;;;;3.53;2.80;;;4.80;99.90;4.60;99272.00;;;;5035254;27;87741;-73
2021/12/29 07:40:11;;;;;;;5.43;3.47;;;4.80;99.90;4.60;99279.00;;;;5016642;27;88891;-73
2021/12/29 07:42:39;;;;;;;6.53;5.07;;;4.80;99.90;4.60;99282.00;;;;5018118;27;87688;-72
2021/12/29 07:45:08;;;;;;;9.47;6.07;;;4.80;99.90;4.50;99281.00;;;;5014093;27;88053;-73
2021/12/29 07:47:36;;;;;;;7.87;5.83;;;4.80;99.90;4.60;99292.00;;;;5024944;27;88640;-72
2021/12/29 07:50:04;;;;;;;6.00;3.93;;;4.70;99.90;4.50;99299.00;;;;5032756;27;87655;-73
2021/12/29 07:52:30;;;;;;;7.33;4.90;;;4.70;99.90;4.60;99321.00;;;;5004358;27;89683;-72
2021/12/29 07:54:55;;;;;;;4.77;3.47;;;4.70;99.90;4.60;99319.00;;;;5031279;27;116988;-73
2021/12/29 07:57:21;;;;;;;3.30;3.00;;;4.80;99.90;4.60;99322.00;;;;5031145;27;115889;-73
2021/12/29 07:59:47;;;;;;;7.00;3.73;;;4.80;99.90;4.60;99316.00;;;;5030896;27;110144;-73
2021/12/29 08:02:18;;;;;;;8.67;3.40;;;4.80;99.90;4.60;99322.00;;;;5015892;27;87999;-73
2021/12/29 08:04:44;;;;;;;6.83;2.70;;;4.80;99.90;4.60;99320.00;;;;5030926;27;99677;-73
2021/12/29 08:07:10;;;;;;;3.70;2.93;;;4.80;99.90;4.60;99328.00;;;;5031769;27;99008;-73
2021/12/29 08:09:36;;;;;;;5.10;3.03;;;4.80;99.90;4.70;99326.00;;;;5032280;27;89763;-72
2021/12/29 08:12:02;;;;;;;10.60;6.83;;;4.80;99.90;4.70;99339.00;;;;5024026;27;88108;-73
2021/12/29 08:14:28;;;;;;;6.20;4.93;;;4.90;99.90;4.80;99330.00;;;;5030938;27;101815;-74
2021/12/29 08:16:53;;;;;;;12.83;4.43;;;5.00;99.90;4.80;99338.00;;;;5032477;27;88090;-73
2021/12/29 08:19:19;;;;;;;8.00;4.17;;;5.00;99.90;4.80;99335.00;;;;5031115;27;110530;-73
2021/12/29 08:21:45;;;;;;;5.97;3.60;;;5.00;99.90;4.80;99350.00;;;;5001624;27;108768;-73
2021/12/29 08:24:10;;;;;;;8.03;5.07;;;5.00;99.90;4.80;99350.00;;;;5029461;27;88927;-73
2021/12/29 08:26:36;;;;;;;8.97;4.23;;;5.00;99.90;4.80;99354.00;;;;5031183;27;116312;-73
2021/12/29 08:29:02;;;;;;;4.97;4.17;;;5.00;99.90;4.90;99365.00;;;;5030165;27;110499;-73
2021/12/29 08:31:28;;;;;;;7.60;3.77;;;5.00;99.90;4.90;99359.00;;;;5009512;27;107225;-73
2021/12/29 08:33:55;;;;;;;5.60;3.70;;;5.10;99.90;4.90;99374.00;;;;5009359;27;89255;-73
2021/12/29 08:36:21;;;;;;;5.63;3.93;;;5.00;99.90;5.00;99368.00;;;;5031495;27;87947;-73
2021/12/29 08:38:47;;;;;;;7.40;3.93;;;5.10;99.90;5.00;99365.00;;;;5032034;27;87924;-73
2021/12/29 08:41:13;;;;;;;6.67;3.83;;;5.10;99.90;5.10;99379.00;;;;5029106;27;87876;-73
2021/12/29 08:43:39;;;;;;;4.27;3.63;;;5.20;99.90;5.10;99377.00;;;;5009148;27;93670;-73
2021/12/29 08:46:05;;;;;;;5.20;4.07;;;5.30;99.90;5.20;99379.00;;;;5011408;27;90670;-72
2021/12/29 08:48:31;;;;;;;9.03;4.67;;;5.30;99.90;5.20;99387.00;;;;5031375;27;87985;-73
2021/12/29 08:50:59;;;;;;;4.87;3.53;;;5.40;99.90;5.20;99397.00;;;;5030128;27;108957;-72
2021/12/29 08:53:26;;;;;;;6.40;3.83;;;5.30;99.90;5.30;99388.00;;;;5023981;27;89708;-72
2021/12/29 08:55:55;;;;;;;6.43;3.57;;;5.50;99.90;5.30;99396.00;;;;5031327;27;90173;-73
2021/12/29 08:58:24;;;;;;;7.03;4.37;;;5.40;99.90;5.30;99409.00;;;;5031921;27;87815;-73
2021/12/29 09:00:52;;;;;;;6.33;4.17;;;5.50;99.90;5.30;99402.00;;;;4996572;27;87666;-72
2021/12/29 09:03:18;;;;;;;7.60;4.43;;;5.50;99.90;5.40;99403.00;;;;5031362;27;89020;-72
2021/12/29 09:05:44;;;;;;;6.37;4.07;;;5.60;99.90;5.40;99411.00;;;;5013041;27;87629;-72
2021/12/29 09:08:10;;;;;;;4.60;3.67;;;5.50;99.90;5.40;99417.00;;;;5011766;27;109915;-73
2021/12/29 09:10:36;;;;;;;6.43;3.30;;;5.60;99.90;5.40;99426.00;;;;5032633;27;107357;-72
2021/12/29 09:13:03;;;;;;;15.27;9.07;;;5.60;99.90;5.50;99431.00;;;;5019568;27;88129;-71
2021/12/29 09:15:30;;;;;;;5.30;4.03;;;5.70;99.90;5.50;99434.00;;;;5034806;27;104168;-71
2021/12/29 09:17:56;;;;;;;6.07;3.90;;;5.70;99.90;5.60;99430.00;;;;5034239;27;88736;-71
2021/12/29 09:20:27;;;;;;;6.63;4.50;;;5.70;99.90;5.60;99425.00;;;;5035220;27;88143;-71
2021/12/29 09:22:57;;;;;;;7.27;4.33;;;5.80;99.90;5.70;99437.00;;;;5025834;27;88420;-71
2021/12/29 09:25:23;;;;;;;5.73;3.93;;;5.80;99.90;5.80;99437.00;;;;5034880;27;88195;-70
2021/12/29 09:27:50;;;;;;;12.53;4.17;;;5.90;99.90;5.80;99442.00;;;;5033015;27;88189;-70
2021/12/29 09:30:23;;;;;;;10.33;4.97;;;5.90;99.90;5.90;99450.00;;;;5011415;27;87749;-71
2021/12/29 09:32:49;;;;;;;16.27;9.27;;;6.00;99.90;5.90;99458.00;;;;5025620;27;99095;-71
2021/12/29 09:35:16;;;;;;;12.50;7.60;;;6.10;99.90;6.00;99469.00;;;;4998860;27;96634;-71
2021/12/29 09:37:43;;;;;;;11.17;5.50;;;6.10;99.90;6.00;99463.00;;;;5034718;27;87919;-70
2021/12/29 09:40:10;;;;;;;14.30;7.40;;;6.10;99.90;6.10;99462.00;;;;5034097;27;109109;-70
2021/12/29 09:42:36;;;;;;;15.57;9.57;;;6.20;99.90;6.10;99457.00;;;;5011432;27;89161;-70
2021/12/29 09:45:03;;;;;;;12.07;8.40;;;6.20;99.90;6.10;99457.00;;;;5014011;27;93176;-70
2021/12/29 09:47:29;;;;;;;11.80;7.50;;;6.30;99.90;6.20;99458.00;;;;5034413;27;87938;-70
2021/12/29 09:49:55;;;;;;;14.20;5.93;;;6.30;99.90;6.30;99460.00;;;;5015896;27;87941;-70
2021/12/29 09:52:22;;;;;;;11.87;5.97;;;6.40;99.90;6.40;99458.00;;;;5011971;27;95988;-70
2021/12/29 09:54:48;;;;;;;7.97;4.87;;;6.50;99.90;6.50;99456.00;;;;5029749;27;117488;-69
2021/12/29 09:57:14;;;;;;;5.03;2.97;;;6.60;99.90;6.60;99446.00;;;;5033269;27;110575;-69
2021/12/29 09:59:40;;;;;;;6.33;3.97;;;6.70;99.90;6.70;99456.00;;;;5034986;27;96943;-69
2021/12/29 10:02:06;;;;;;;7.47;4.43;;;6.80;99.90;6.80;99452.00;;;;5024805;27;118463;-69
2021/12/29 10:04:37;;;;;;;7.67;4.87;;;6.90;99.90;6.90;99453.00;;;;5035106;27;88035;-69
2021/12/29 10:07:20;;;;;;;15.43;5.93;;;7.00;99.90;7.00;99453.00;;;;5033786;27;88721;-70
2021/12/29 10:09:47;;;;;;;8.60;5.10;;;7.10;99.90;7.00;99447.00;;;;5033471;27;92613;-70
2021/12/29 10:12:20;;;;;;;8.83;3.40;;;7.20;99.90;7.10;99449.00;;;;5017557;27;89197;-71
2021/12/29 10:14:59;;;;;;;3.37;2.73;;;7.20;99.90;7.10;99459.00;;;;5015528;27;89717;-70
2021/12/29 10:17:29;;;;;;;7.20;3.60;;;7.20;99.90;7.20;99459.00;;;;5015432;27;87784;-70
2021/12/29 10:20:21;;;;;;;4.43;2.97;;;7.20;99.90;7.20;99452.00;;;;5014201;27;108802;-72
2021/12/29 10:22:57;;;;;;;6.23;3.80;;;7.30;99.90;7.30;99460.00;;;;5006634;27;118409;-71
2021/12/29 10:25:24;;;;;;;7.70;4.73;;;7.30;99.90;7.60;99462.00;;;;5026821;27;101122;-71
2021/12/29 10:27:52;;;;;;;9.20;4.30;;;7.70;99.90;7.80;99461.00;;;;5033621;27;87710;-72
2021/12/29 10:30:29;;;;;;;6.77;3.77;;;7.80;99.90;8.00;99455.00;;;;4993726;27;87793;-70
2021/12/29 10:32:57;;;;;;;5.83;3.77;;;8.10;99.90;8.10;99458.00;;;;5005848;27;88769;-70
2021/12/29 10:35:33;;;;;;;6.80;3.47;;;8.10;99.90;8.10;99444.00;;;;5033889;27;89792;-72
2021/12/29 10:38:20;;;;;;;9.20;3.83;;;8.20;99.90;8.20;99452.00;;;;5027440;27;87969;-72
2021/12/29 10:40:48;;;;;;;5.03;3.00;;;8.30;99.90;8.20;99445.00;;;;5016073;27;88133;-70
2021/12/29 10:43:14;;;;;;;3.50;2.77;;;8.60;99.90;8.20;99450.00;;;;5024993;27;88816;-70
2021/12/29 10:45:44;;;;;;;5.03;2.90;;;8.30;99.90;8.20;99447.00;;;;5033167;27;104002;-70
2021/12/29 10:48:26;;;;;;;6.10;3.17;;;8.30;99.90;8.20;99445.00;;;;5033876;27;87636;-69
2021/12/29 10:51:02;;;;;;;4.93;3.00;;;8.30;99.90;8.10;99446.00;;;;4999740;27;87281;-71
2021/12/29 10:53:29;;;;;;;6.83;3.07;;;8.30;99.90;8.10;99458.00;;;;5019799;27;87937;-71
2021/12/29 10:55:55;;;;;;;4.67;3.30;;;8.20;99.90;8.00;99456.00;;;;5033770;27;88831;-69
2021/12/29 10:58:26;;;;;;;3.90;3.07;;;8.20;99.90;7.90;99454.00;;;;5033358;27;89152;-71
2021/12/29 11:01:01;;;;;;;4.53;2.90;;;8.10;99.90;7.90;99451.00;;;;5033477;27;87747;-71
2021/12/29 11:03:29;;;;;;;5.47;2.70;;;8.10;99.90;8.10;99452.00;;;;5019638;27;88118;-72
2021/12/29 11:05:58;;;;;;;4.73;2.60;;;8.20;99.90;8.40;99469.00;;;;4996881;27;90128;-71
2021/12/29 11:08:46;;;;;;;4.73;2.27;;;8.40;99.90;8.50;99458.00;;;;4991023;27;87745;-71
2021/12/29 11:11:12;;;;;;;3.67;2.70;;;8.50;99.90;8.50;99458.00;;;;5025859;27;88152;-71